createdAt,value
2023-05-24T00:00:06.346Z,94898.53
2023-05-24T00:02:33.261Z,94898.16
2023-05-24T00:05:01.530Z,94888.94
2023-05-24T00:07:28.489Z,94890.72
2023-05-24T00:09:55.569Z,94894.91
2023-05-24T00:12:22.333Z,94889.38
2023-05-24T00:14:49.516Z,94887.94
2023-05-24T00:17:16.466Z,94887.09
2023-05-24T00:19:43.689Z,94883.41
2023-05-24T00:22:10.445Z,94878.97
2023-05-24T00:24:37.234Z,94877.00
2023-05-24T00:27:04.502Z,94879.34
2023-05-24T00:29:32.424Z,94877.53
2023-05-24T00:32:00.491Z,94880.53
2023-05-24T00:34:27.367Z,94876.38
2023-05-24T00:36:54.231Z,94883.63
2023-05-24T00:39:21.241Z,94880.91
2023-05-24T00:41:48.227Z,94878.03
2023-05-24T00:44:15.476Z,94872.19
2023-05-24T00:46:42.385Z,94878.66
2023-05-24T00:49:09.780Z,94875.59
2023-05-24T00:51:38.547Z,94878.19
2023-05-24T00:54:06.931Z,94875.75
2023-05-24T00:56:34.179Z,94869.78
2023-05-24T00:59:02.045Z,94876.00
2023-05-24T01:01:30.995Z,94878.53
2023-05-24T01:03:59.672Z,94875.81
2023-05-24T01:06:28.197Z,94878.22
2023-05-24T01:09:20.047Z,94875.59
2023-05-24T01:11:55.960Z,94879.66
2023-05-24T01:14:40.031Z,94871.91
2023-05-24T01:17:15.174Z,94873.41
2023-05-24T01:19:51.287Z,94875.31
2023-05-24T01:22:35.026Z,94873.41
2023-05-24T01:25:13.115Z,94875.16
2023-05-24T01:27:40.995Z,94876.88
2023-05-24T01:30:08.324Z,94868.25
2023-05-24T01:32:35.549Z,94873.22
2023-05-24T01:35:02.419Z,94865.56
2023-05-24T01:37:29.222Z,94867.25
2023-05-24T01:39:56.197Z,94875.72
2023-05-24T01:42:32.721Z,94877.31
2023-05-24T01:45:14.588Z,94870.09
2023-05-24T01:47:53.876Z,94868.53
2023-05-24T01:50:27.017Z,94872.06
2023-05-24T01:52:58.863Z,94876.69
2023-05-24T01:55:27.231Z,94871.63
2023-05-24T01:57:58.864Z,94876.41
2023-05-24T02:00:26.791Z,94867.19
2023-05-24T02:02:55.089Z,94872.47
2023-05-24T02:05:22.050Z,94870.72
2023-05-24T02:07:48.846Z,94868.50
2023-05-24T02:10:16.029Z,94871.88
2023-05-24T02:12:42.821Z,94872.06
2023-05-24T02:15:14.861Z,94872.19
2023-05-24T02:17:43.332Z,94873.03
2023-05-24T02:20:11.040Z,94873.88
2023-05-24T02:22:38.661Z,94871.41
2023-05-24T02:25:06.616Z,94869.28
2023-05-24T02:27:33.878Z,94872.34
2023-05-24T02:30:00.721Z,94873.44
2023-05-24T02:32:27.476Z,94869.09
2023-05-24T02:34:54.244Z,94870.63
2023-05-24T02:37:21.068Z,94867.63
2023-05-24T02:39:47.943Z,94860.78
2023-05-24T02:42:14.987Z,94868.84
2023-05-24T02:44:42.864Z,94868.38
2023-05-24T02:47:09.761Z,94868.94
2023-05-24T02:49:36.520Z,94858.81
2023-05-24T02:52:03.530Z,94863.56
2023-05-24T02:54:30.568Z,94863.19
2023-05-24T02:56:58.095Z,94857.16
2023-05-24T02:59:25.573Z,94869.66
2023-05-24T03:01:52.513Z,94859.47
2023-05-24T03:04:19.421Z,94860.75
2023-05-24T03:06:47.280Z,94868.44
2023-05-24T03:09:16.808Z,94864.22
2023-05-24T03:11:44.404Z,94855.31
2023-05-24T03:14:11.367Z,94858.31
2023-05-24T03:16:40.781Z,94854.56
2023-05-24T03:19:09.895Z,94863.47
2023-05-24T03:21:37.556Z,94855.03
2023-05-24T03:24:04.967Z,94859.25
2023-05-24T03:26:32.316Z,94861.63
2023-05-24T03:28:59.092Z,94866.44
2023-05-24T03:31:31.895Z,94860.19
2023-05-24T03:33:58.719Z,94863.09
2023-05-24T03:36:29.065Z,94864.34
2023-05-24T03:38:58.503Z,94862.59
2023-05-24T03:41:27.642Z,94862.56
2023-05-24T03:43:58.256Z,94863.63
2023-05-24T03:46:27.036Z,94859.94
2023-05-24T03:48:55.274Z,94863.84
2023-05-24T03:51:24.459Z,94862.31
2023-05-24T03:53:51.268Z,94865.63
2023-05-24T03:56:18.050Z,94867.47
2023-05-24T03:58:44.831Z,94865.50
2023-05-24T04:01:21.989Z,94871.91
2023-05-24T04:03:57.432Z,94881.06
2023-05-24T04:06:29.272Z,94883.00
2023-05-24T04:08:58.175Z,94887.19
2023-05-24T04:11:28.511Z,94885.19
2023-05-24T04:13:57.336Z,94884.19
2023-05-24T04:16:24.606Z,94879.44
2023-05-24T04:18:51.701Z,94890.91
2023-05-24T04:21:18.578Z,94890.03
2023-05-24T04:23:45.971Z,94882.81
2023-05-24T04:26:13.565Z,94888.09
2023-05-24T04:28:41.168Z,94889.69
2023-05-24T04:31:09.882Z,94883.84
2023-05-24T04:33:39.291Z,94890.53
2023-05-24T04:36:06.430Z,94889.25
2023-05-24T04:38:34.727Z,94886.00
2023-05-24T04:41:02.088Z,94894.00
2023-05-24T04:43:28.889Z,94888.47
2023-05-24T04:45:55.920Z,94897.28
2023-05-24T04:48:24.506Z,94893.63
2023-05-24T04:50:52.573Z,94893.13
2023-05-24T04:53:22.282Z,94897.53
2023-05-24T04:55:49.798Z,94892.22
2023-05-24T04:58:17.162Z,94893.38
2023-05-24T05:00:44.844Z,94899.63
2023-05-24T05:03:11.806Z,94903.19
2023-05-24T05:05:38.777Z,94900.59
2023-05-24T05:08:07.149Z,94895.66
2023-05-24T05:10:33.904Z,94894.75
2023-05-24T05:13:00.770Z,94896.53
2023-05-24T05:15:27.823Z,94888.31
2023-05-24T05:17:54.614Z,94892.97
2023-05-24T05:20:21.469Z,94884.53
2023-05-24T05:22:48.956Z,94889.78
2023-05-24T05:25:15.963Z,94886.78
2023-05-24T05:27:42.788Z,94890.66
2023-05-24T05:30:09.985Z,94890.97
2023-05-24T05:32:37.341Z,94890.06
2023-05-24T05:35:05.068Z,94893.16
2023-05-24T05:37:31.900Z,94897.94
2023-05-24T05:39:58.686Z,94887.53
2023-05-24T05:42:25.678Z,94890.78
2023-05-24T05:44:52.850Z,94887.38
2023-05-24T05:47:19.741Z,94891.31
2023-05-24T05:49:46.658Z,94893.56
2023-05-24T05:52:13.547Z,94903.06
2023-05-24T05:54:40.332Z,94898.13
2023-05-24T05:57:10.516Z,94895.13
2023-05-24T05:59:38.450Z,94893.81
2023-05-24T06:02:06.815Z,94890.75
2023-05-24T06:04:34.325Z,94891.78
2023-05-24T06:07:01.415Z,94893.66
2023-05-24T06:09:28.306Z,94892.78
2023-05-24T06:11:55.224Z,94887.69
2023-05-24T06:14:22.488Z,94885.47
2023-05-24T06:16:49.677Z,94896.91
2023-05-24T06:19:17.082Z,94898.41
2023-05-24T06:21:48.588Z,94903.19
2023-05-24T06:24:20.464Z,94899.72
2023-05-24T06:26:48.436Z,94902.19
2023-05-24T06:29:15.444Z,94899.34
2023-05-24T06:31:43.525Z,94898.44
2023-05-24T06:34:10.673Z,94891.34
2023-05-24T06:36:41.599Z,94901.88
2023-05-24T06:39:13.115Z,94892.28
2023-05-24T06:41:39.936Z,94901.22
2023-05-24T06:44:06.820Z,94902.25
2023-05-24T06:46:34.483Z,94893.47
2023-05-24T06:49:01.390Z,94898.81
2023-05-24T06:51:28.720Z,94897.88
2023-05-24T06:53:55.623Z,94896.28
2023-05-24T06:56:23.267Z,94894.97
2023-05-24T06:58:50.033Z,94899.19
2023-05-24T07:01:17.227Z,94903.47
2023-05-24T07:03:44.404Z,94896.69
2023-05-24T07:06:14.208Z,94892.38
2023-05-24T07:08:44.253Z,94896.00
2023-05-24T07:11:11.290Z,94893.03
2023-05-24T07:13:38.255Z,94896.94
2023-05-24T07:16:06.610Z,94899.53
2023-05-24T07:18:33.387Z,94905.66
2023-05-24T07:21:01.130Z,94905.63
2023-05-24T07:23:28.225Z,94903.31
2023-05-24T07:25:55.061Z,94909.13
2023-05-24T07:28:21.920Z,94900.09
2023-05-24T07:33:16.792Z,94904.09
2023-05-24T07:35:45.875Z,94895.78
2023-05-24T07:38:12.857Z,94903.91
2023-05-24T07:40:39.724Z,94903.88
2023-05-24T07:43:06.842Z,94908.72
2023-05-24T07:45:33.937Z,94903.38
2023-05-24T07:48:01.876Z,94903.75
2023-05-24T07:50:29.423Z,94900.22
2023-05-24T07:52:57.347Z,94908.25
2023-05-24T07:55:24.084Z,94911.59
2023-05-24T07:57:50.992Z,94910.78
2023-05-24T08:00:18.455Z,94910.28
2023-05-24T08:02:46.478Z,94899.88
2023-05-24T08:05:14.024Z,94905.72
2023-05-24T08:07:42.080Z,94902.91
2023-05-24T08:10:14.589Z,94908.63
2023-05-24T08:12:42.626Z,94900.50
2023-05-24T08:15:10.026Z,94907.03
2023-05-24T08:17:38.623Z,94907.84
2023-05-24T08:20:10.026Z,94900.31
2023-05-24T08:22:37.752Z,94899.84
2023-05-24T08:25:06.286Z,94905.75
2023-05-24T08:27:33.061Z,94901.56
2023-05-24T08:29:59.823Z,94904.44
2023-05-24T08:32:26.994Z,94904.63
2023-05-24T08:35:03.612Z,94906.75
2023-05-24T08:37:37.872Z,94910.66
2023-05-24T08:40:05.230Z,94914.50
2023-05-24T08:42:32.269Z,94904.59
2023-05-24T08:45:04.564Z,94898.41
2023-05-24T08:47:32.471Z,94902.09
2023-05-24T08:49:59.891Z,94902.97
2023-05-24T08:52:28.028Z,94903.53
2023-05-24T08:54:55.500Z,94897.25
2023-05-24T08:57:22.717Z,94902.03
2023-05-24T08:59:49.657Z,94903.19
2023-05-24T09:02:17.725Z,94897.47
2023-05-24T09:04:48.698Z,94903.78
2023-05-24T09:07:18.430Z,94887.59
2023-05-24T09:09:57.270Z,94903.25
2023-05-24T09:12:36.627Z,94908.66
2023-05-24T09:15:06.188Z,94902.72
2023-05-24T09:17:34.417Z,94911.09
2023-05-24T09:20:01.538Z,94902.38
2023-05-24T09:22:30.874Z,94900.50
2023-05-24T09:25:01.842Z,94910.34
2023-05-24T09:27:31.839Z,94912.63
2023-05-24T09:29:58.750Z,94909.81
2023-05-24T09:32:25.870Z,94915.88
2023-05-24T09:34:54.098Z,94918.56
2023-05-24T09:37:28.237Z,94919.53
2023-05-24T09:39:58.473Z,94922.94
2023-05-24T09:42:28.641Z,94931.13
2023-05-24T09:45:07.779Z,94923.50
2023-05-24T09:47:36.058Z,94929.13
2023-05-24T09:50:04.466Z,94922.44
2023-05-24T09:52:33.159Z,94925.53
2023-05-24T09:55:00.916Z,94923.84
2023-05-24T09:57:28.315Z,94925.19
2023-05-24T09:59:55.526Z,94922.75
2023-05-24T10:02:23.982Z,94910.63
2023-05-24T10:05:00.830Z,94914.00
2023-05-24T10:07:27.692Z,94926.41
2023-05-24T10:09:55.733Z,94930.50
2023-05-24T10:12:23.312Z,94920.84
2023-05-24T10:14:52.429Z,94933.59
2023-05-24T10:17:19.873Z,94932.69
2023-05-24T10:19:46.651Z,94932.88
2023-05-24T10:22:15.938Z,94927.34
2023-05-24T10:24:53.742Z,94937.53
2023-05-24T10:27:24.961Z,94939.41
2023-05-24T10:30:16.529Z,94943.84
2023-05-24T10:32:45.672Z,94945.88
2023-05-24T10:35:14.960Z,94943.25
2023-05-24T10:37:43.270Z,94942.66
2023-05-24T10:40:20.900Z,94928.78
2023-05-24T10:42:48.484Z,94938.81
2023-05-24T10:45:27.498Z,94936.31
2023-05-24T10:47:54.741Z,94944.97
2023-05-24T10:50:22.401Z,94943.91
2023-05-24T10:52:49.720Z,94946.88
2023-05-24T10:55:19.765Z,94955.25
2023-05-24T10:57:46.645Z,94944.03
2023-05-24T11:03:04.123Z,94951.41
2023-05-24T11:05:36.575Z,94949.47
2023-05-24T11:08:06.755Z,94942.13
2023-05-24T11:10:35.759Z,94949.28
2023-05-24T11:13:03.445Z,94946.56
2023-05-24T11:15:30.664Z,94944.81
2023-05-24T11:18:09.722Z,94948.50
2023-05-24T11:20:36.873Z,94950.66
2023-05-24T11:23:04.529Z,94953.00
2023-05-24T11:25:33.138Z,94947.13
2023-05-24T11:28:02.084Z,94938.19
2023-05-24T11:30:29.021Z,94945.66
2023-05-24T11:32:57.160Z,94937.16
2023-05-24T11:35:27.842Z,94947.06
2023-05-24T11:37:54.816Z,94937.38
2023-05-24T11:40:21.641Z,94950.78
2023-05-24T11:42:50.577Z,94948.81
2023-05-24T11:45:18.785Z,94946.00
2023-05-24T11:47:45.828Z,94954.59
2023-05-24T11:50:16.687Z,94944.94
2023-05-24T11:52:44.240Z,94945.34
2023-05-24T11:55:16.429Z,94943.09
2023-05-24T11:57:52.895Z,94933.94
2023-05-24T12:00:26.619Z,94947.41
2023-05-24T12:02:57.273Z,94943.31
2023-05-24T12:05:24.361Z,94948.63
2023-05-24T12:08:02.518Z,94945.88
2023-05-24T12:10:29.265Z,94940.50
2023-05-24T12:12:57.423Z,94940.75
2023-05-24T12:15:24.461Z,94948.63
2023-05-24T12:17:52.203Z,94943.66
2023-05-24T12:20:22.352Z,94949.03
2023-05-24T12:22:52.881Z,94947.09
2023-05-24T12:25:21.392Z,94947.59
2023-05-24T12:27:57.445Z,94936.00
2023-05-24T12:30:28.345Z,94942.00
2023-05-24T12:32:55.672Z,94942.97
2023-05-24T12:35:22.943Z,94949.09
2023-05-24T12:37:50.392Z,94948.81
2023-05-24T12:40:20.776Z,94953.69
2023-05-24T12:42:51.926Z,94957.31
2023-05-24T12:45:26.070Z,94949.06
2023-05-24T12:47:56.545Z,94946.13
2023-05-24T12:50:25.866Z,94946.19
2023-05-24T12:52:53.958Z,94951.97
2023-05-24T12:55:23.578Z,94956.72
2023-05-24T12:57:56.274Z,94956.72
2023-05-24T13:00:28.149Z,94956.34
2023-05-24T13:02:58.955Z,94950.53
2023-05-24T13:05:27.701Z,94953.16
2023-05-24T13:07:56.655Z,94963.22
2023-05-24T13:10:25.122Z,94943.78
2023-05-24T13:12:51.996Z,94945.13
2023-05-24T13:15:19.778Z,94947.34
2023-05-24T13:17:47.548Z,94947.66
2023-05-24T13:20:14.409Z,94956.38
2023-05-24T13:22:41.233Z,94945.66
2023-05-24T13:25:10.044Z,94951.84
2023-05-24T13:27:36.909Z,94952.81
2023-05-24T13:30:04.831Z,94961.44
2023-05-24T13:32:31.916Z,94946.03
2023-05-24T13:34:59.261Z,94955.53
2023-05-24T13:37:26.070Z,94958.81
2023-05-24T13:39:52.918Z,94965.63
2023-05-24T13:42:20.023Z,94942.22
2023-05-24T13:44:46.882Z,94960.97
2023-05-24T13:47:40.612Z,94956.09
2023-05-24T13:50:00.734Z,94949.34
2023-05-24T13:52:27.537Z,94951.38
2023-05-24T13:54:54.412Z,94948.31
2023-05-24T13:57:24.027Z,94939.28
2023-05-24T13:59:52.478Z,94953.88
2023-05-24T14:02:19.296Z,94952.81
2023-05-24T14:04:46.170Z,94958.91
2023-05-24T14:07:15.698Z,94961.25
2023-05-24T14:09:42.681Z,94964.78
2023-05-24T14:12:09.798Z,94955.22
2023-05-24T14:14:59.283Z,94963.06
2023-05-24T14:17:23.821Z,94967.56
2023-05-24T14:19:50.876Z,94958.22
2023-05-24T14:22:18.007Z,94971.03
2023-05-24T14:24:44.982Z,94970.31
2023-05-24T14:27:11.889Z,94938.84
2023-05-24T14:29:38.702Z,94961.56
2023-05-24T14:32:05.849Z,94961.25
2023-05-24T14:34:32.929Z,94949.88
2023-05-24T14:36:59.885Z,94958.22
2023-05-24T14:39:26.871Z,94965.81
2023-05-24T14:41:53.732Z,94959.97
2023-05-24T14:44:20.823Z,94955.25
2023-05-24T14:46:47.918Z,94959.31
2023-05-24T14:49:15.242Z,94946.25
2023-05-24T14:51:42.150Z,94954.72
2023-05-24T14:54:11.336Z,94953.81
2023-05-24T14:56:38.206Z,94959.31
2023-05-24T14:59:05.137Z,94960.28
2023-05-24T15:01:31.944Z,94970.59
2023-05-24T15:03:59.065Z,94955.69
2023-05-24T15:06:26.022Z,94952.59
2023-05-24T15:08:52.951Z,94937.81
2023-05-24T15:11:19.908Z,94951.66
2023-05-24T15:13:46.856Z,94957.19
2023-05-24T15:16:13.992Z,94935.00
2023-05-24T15:18:40.822Z,94959.19
2023-05-24T15:21:07.709Z,94943.16
2023-05-24T15:23:34.486Z,94951.88
2023-05-24T15:26:01.995Z,94951.09
2023-05-24T15:28:28.852Z,94948.31
2023-05-24T15:30:57.041Z,94948.66
2023-05-24T15:33:23.868Z,94932.38
2023-05-24T15:35:50.905Z,94941.53
2023-05-24T15:38:18.661Z,94944.25
2023-05-24T15:40:46.329Z,94964.97
2023-05-24T15:43:15.534Z,94943.03
2023-05-24T15:45:43.848Z,94946.28
2023-05-24T15:48:10.836Z,94936.78
2023-05-24T15:53:11.698Z,94927.81
2023-05-24T15:55:39.094Z,94950.00
2023-05-24T15:58:06.137Z,94931.75
2023-05-24T16:00:33.121Z,94933.88
2023-05-24T16:03:00.110Z,94929.50
2023-05-24T16:05:28.425Z,94927.03
2023-05-24T16:07:55.624Z,94932.22
2023-05-24T16:10:22.418Z,94946.59
2023-05-24T16:12:49.361Z,94939.28
2023-05-24T16:15:16.291Z,94922.31
2023-05-24T16:17:44.830Z,94888.41
2023-05-24T16:20:11.747Z,94930.31
2023-05-24T16:22:48.931Z,94911.81
2023-05-24T16:25:16.193Z,94932.06
2023-05-24T16:27:43.081Z,94930.03
2023-05-24T16:30:10.177Z,94914.78
2023-05-24T16:32:37.118Z,94915.25
2023-05-24T16:35:05.568Z,94928.25
2023-05-24T16:37:32.426Z,94909.84
2023-05-24T16:39:59.304Z,94901.59
2023-05-24T16:42:26.107Z,94912.00
2023-05-24T16:44:53.004Z,94919.84
2023-05-24T16:47:19.837Z,94927.81
2023-05-24T16:49:46.825Z,94926.59
2023-05-24T16:52:13.757Z,94935.69
2023-05-24T16:54:40.567Z,94925.03
2023-05-24T16:57:07.599Z,94933.88
2023-05-24T16:59:34.430Z,94924.84
2023-05-24T17:02:01.346Z,94922.44
2023-05-24T17:04:28.172Z,94926.03
2023-05-24T17:06:54.942Z,94913.56
2023-05-24T17:09:21.796Z,94935.47
2023-05-24T17:11:50.626Z,94943.19
2023-05-24T17:14:17.912Z,94903.75
2023-05-24T17:16:44.865Z,94909.50
2023-05-24T17:19:13.898Z,94938.03
2023-05-24T17:21:40.959Z,94934.13
2023-05-24T17:24:07.757Z,94919.97
2023-05-24T17:26:34.692Z,94929.84
2023-05-24T17:29:02.295Z,94932.44
2023-05-24T17:31:29.089Z,94933.13
2023-05-24T17:33:57.612Z,94926.16
2023-05-24T17:36:24.368Z,94920.06
2023-05-24T17:38:52.622Z,94921.66
2023-05-24T17:41:19.451Z,94924.44
2023-05-24T17:43:46.212Z,94918.16
2023-05-24T17:46:13.632Z,94922.66
2023-05-24T17:48:41.245Z,94919.84
2023-05-24T17:51:09.462Z,94927.28
2023-05-24T17:53:38.167Z,94927.38
2023-05-24T17:56:06.881Z,94931.78
2023-05-24T17:58:36.834Z,94930.09
2023-05-24T18:01:08.337Z,94935.91
2023-05-24T18:03:39.387Z,94937.16
2023-05-24T18:06:07.390Z,94948.38
2023-05-24T18:08:39.104Z,94948.75
2023-05-24T18:11:09.745Z,94952.47
2023-05-24T18:13:41.906Z,94954.13
2023-05-24T18:16:10.512Z,94956.81
2023-05-24T18:18:41.061Z,94959.56
2023-05-24T18:21:09.652Z,94959.31
2023-05-24T18:23:39.704Z,94958.91
2023-05-24T18:26:10.848Z,94965.34
2023-05-24T18:28:38.796Z,94972.09
2023-05-24T18:31:14.595Z,94966.84
2023-05-24T18:33:42.089Z,94980.03
2023-05-24T18:36:09.146Z,94969.03
2023-05-24T18:38:37.081Z,94962.16
2023-05-24T18:41:06.253Z,94965.75
2023-05-24T18:43:33.666Z,94968.03
2023-05-24T18:46:01.056Z,94962.16
2023-05-24T18:48:29.270Z,94972.97
2023-05-24T18:50:56.084Z,94962.13
2023-05-24T18:53:22.883Z,94972.44
2023-05-24T18:55:49.672Z,94965.13
2023-05-24T18:58:16.484Z,94971.59
2023-05-24T19:00:43.305Z,94956.78
2023-05-24T19:03:12.151Z,94963.81
2023-05-24T19:05:42.576Z,94963.75
2023-05-24T19:08:10.887Z,94962.56
2023-05-24T19:10:37.774Z,94966.72
2023-05-24T19:13:06.517Z,94962.63
2023-05-24T19:15:35.407Z,94974.41
2023-05-24T19:18:02.692Z,94969.19
2023-05-24T19:20:29.528Z,94979.59
2023-05-24T19:22:56.543Z,94991.19
2023-05-24T19:25:23.268Z,94989.84
2023-05-24T19:27:59.101Z,94987.78
2023-05-24T19:30:27.161Z,94978.28
2023-05-24T19:32:53.915Z,94978.72
2023-05-24T19:35:21.117Z,94978.44
2023-05-24T19:37:47.952Z,94989.88
2023-05-24T19:40:14.845Z,94989.19
2023-05-24T19:42:41.768Z,95003.28
2023-05-24T19:45:09.667Z,95001.78
2023-05-24T19:47:36.771Z,95018.31
2023-05-24T19:50:03.772Z,95010.00
2023-05-24T19:52:30.533Z,95005.97
2023-05-24T19:54:57.427Z,95005.97
2023-05-24T19:57:24.227Z,95000.44
2023-05-24T19:59:51.130Z,94999.25
2023-05-24T20:02:18.153Z,95008.53
2023-05-24T20:04:44.981Z,95001.41
2023-05-24T20:07:12.044Z,94995.63
2023-05-24T20:09:39.040Z,94988.91
2023-05-24T20:12:06.361Z,94995.94
2023-05-24T20:14:33.601Z,94996.03
2023-05-24T20:17:01.280Z,94996.97
2023-05-24T20:19:28.389Z,95003.69
2023-05-24T20:21:55.254Z,95006.91
2023-05-24T20:24:22.061Z,95001.25
2023-05-24T20:26:49.125Z,95002.91
2023-05-24T20:29:16.004Z,94987.75
2023-05-24T20:31:43.026Z,94987.78
2023-05-24T20:34:09.952Z,94991.84
2023-05-24T20:36:37.108Z,94986.94
2023-05-24T20:39:04.416Z,94981.28
2023-05-24T20:41:31.375Z,94989.31
2023-05-24T20:43:58.295Z,94981.44
2023-05-24T20:46:25.550Z,94987.22
2023-05-24T20:48:53.993Z,94988.00
2023-05-24T20:51:23.151Z,94992.97
2023-05-24T20:53:52.240Z,94993.97
2023-05-24T20:56:20.452Z,94988.06
2023-05-24T20:58:49.223Z,94983.38
2023-05-24T21:01:16.776Z,94993.34
2023-05-24T21:03:43.801Z,95002.72
2023-05-24T21:06:10.908Z,95007.22
2023-05-24T21:08:38.455Z,95007.72
2023-05-24T21:11:05.482Z,95011.66
2023-05-24T21:13:32.430Z,95012.53
2023-05-24T21:15:59.383Z,95021.22
2023-05-24T21:18:26.207Z,95025.16
2023-05-24T21:20:52.965Z,95018.31
2023-05-24T21:23:19.863Z,95008.97
2023-05-24T21:25:46.599Z,95008.34
2023-05-24T21:28:14.178Z,95004.06
2023-05-24T21:30:41.237Z,95007.72
2023-05-24T21:33:08.296Z,95007.41
2023-05-24T21:35:35.135Z,95016.00
2023-05-24T21:38:02.018Z,95011.03
2023-05-24T21:40:28.991Z,95021.63
2023-05-24T21:42:55.696Z,95024.06
2023-05-24T21:45:22.566Z,95016.56
2023-05-24T21:47:49.594Z,95028.31
2023-05-24T21:50:16.481Z,95028.78
2023-05-24T21:52:43.347Z,95020.50
2023-05-24T21:55:10.228Z,95022.28
2023-05-24T21:57:37.052Z,95027.13
2023-05-24T22:00:05.275Z,95029.53
2023-05-24T22:02:32.577Z,95032.94
2023-05-24T22:04:59.372Z,95026.94
2023-05-24T22:07:26.286Z,95019.06
2023-05-24T22:09:53.070Z,95027.41
2023-05-24T22:12:19.911Z,95025.63
2023-05-24T22:14:46.783Z,95024.63
2023-05-24T22:17:14.304Z,95027.44
2023-05-24T22:19:41.409Z,95031.22
2023-05-24T22:22:09.961Z,95034.94
2023-05-24T22:24:36.918Z,95027.47
2023-05-24T22:27:04.953Z,95021.13
2023-05-24T22:29:31.744Z,95022.22
2023-05-24T22:31:58.761Z,95027.31
2023-05-24T22:34:28.855Z,95030.00
2023-05-24T22:36:57.636Z,95030.16
2023-05-24T22:39:24.919Z,95017.84
2023-05-24T22:41:52.732Z,95026.81
2023-05-24T22:44:19.844Z,95027.94
2023-05-24T22:46:50.292Z,95032.47
2023-05-24T22:49:20.155Z,95030.25
2023-05-24T22:51:48.180Z,95015.31
2023-05-24T22:54:15.786Z,95014.19
2023-05-24T22:56:43.564Z,95020.94
2023-05-24T22:59:11.313Z,95014.78
2023-05-24T23:01:38.489Z,95017.66
2023-05-24T23:04:19.831Z,95007.88
2023-05-24T23:06:49.056Z,95009.91
2023-05-24T23:09:17.702Z,95009.59
2023-05-24T23:11:44.480Z,95016.69
2023-05-24T23:14:11.738Z,95013.34
2023-05-24T23:16:45.224Z,95008.03
2023-05-24T23:19:18.593Z,95015.03
2023-05-24T23:21:46.158Z,95012.50
2023-05-24T23:24:14.734Z,95006.94
2023-05-24T23:26:42.390Z,95007.56
2023-05-24T23:29:09.393Z,95008.63
2023-05-24T23:31:36.655Z,95002.47
2023-05-24T23:34:04.574Z,95012.75
2023-05-24T23:36:31.611Z,95008.47
2023-05-24T23:38:58.446Z,95021.50
2023-05-24T23:41:26.457Z,95013.72
2023-05-24T23:43:53.296Z,95004.88
2023-05-24T23:46:20.069Z,95010.53
2023-05-24T23:48:46.863Z,95018.75
2023-05-24T23:51:13.672Z,95015.78
2023-05-24T23:53:40.447Z,95015.03
2023-05-24T23:56:07.298Z,95020.25
2023-05-24T23:58:34.165Z,95018.31
